PILOTS ONLINE: 258    ATC ONLINE: 23

KFHU

Sierra Vista Municipal Libby Army Air Field

Location

IATA FHU
City Fort Huachuca Sierra Vista
Country  United States
Latitude 31° 35' 18" N
Longitude 110° 20' 38" W
Elevation 4719 ft
Type Medium Airport

Map

Weather

METAR
2014/10/25 05:55
KFHU 250555Z 25009KT 10SM CLR 19/07 A3024 RMK SLP183 51005
TAF
2014/10/25 03:04
TAF KFHU 2503/2609 VRB06KT 9999 FEW100 QNH3019INS 
      BECMG 2517/2518 27009KT 9999 FEW150 QNH3015INS 
      BECMG 2522/2523 VRB06KT 9999 FEW100 SCT200 QNH3016INS TX30/2522Z TN14/2511Z LAST NO 
      AMDS AFT 2506 NEXT 2703

Runways

03/21 4285 ft / 75 ft
08/26 12001 ft / 150 ft
12/30 5366 ft / 100 ft

Outbound flights

Callsign Flying to Pilot ATD/STD ETA Aircraft

Inbound flights

Callsign Flying from Pilot ATD ETA Aircraft